Rechercher aéroport 
image banner adimage banner adimage banner ad
image banner ad

CA25 - Mark Twain Medical Center

Situé à San Andreas, United States

ICAO - CA25, IATA -

Données fournies par Airmate  

Information générale

Coordonnées: N38°11'27" W120°40'9"
Élévation : 1033 feet MSL.
Variation magnétique : 16° East
Voir autres Aéroports à California

Données opérationnelles

Special qualification required
Heure actuelle UTC:
Heure actuelle locale:
METAR: KCPU 260935Z AUTO 00000KT 10SM CLR 16/05 A2999 RMK AO2 T01630051
Voir NOTAMs / SUP AIP / TFR affectant cet aéroport [VIEW]
Fréquences de communication: [VIEW]

Pistes:

Coordonnées de l'aéroport

Adresse: San Andreas United States

Vue satellite de CA25